Airfield :
LOGIN :

Register | Disclaimer

   EN    FR    IT 

 










Legend :    VFR   Marginal VFR   IFR   Intensive IFR   Very Intensive IFR
Visi :
Ceiling :
>= 8 km
>= 3000ft
5 to 8 km
1000 to 3000 ft
1500m to 5 km
500 to 1000 ft
800 to 1500m
200 to 500 ft
< 800m
< 200 ft
Symbols :   Thunderstorms  Fog  Heavy snow  Heavy precipitations  Wind > 20 kt
SIGMETs :     Misc.  Thunderstorms  Icing  Turbulence  Mountain Waves  Volcanic Ashes






- Airport Elevation : 157 ft
- IATA code : LIL


LFQQ - Lille Lesquin

CURRENT METAR :
  • 070400Z AUTO 28005KT 6000 FEW020 SCT026 BKN031 04/03 Q1019 TEMPO 3000 -SHRA BR SCT010 BKN020TCU

EXPIRED METARs :
  • 070330Z AUTO 26007KT 6000 BKN030 BKN039 OVC062 04/04 Q1019 TEMPO 3000 -SHRA BR SCT010 BKN020TCU
  • 070300Z AUTO 26007KT 5000 DZ BR SCT026 BKN036 BKN046 04/04 Q1020 TEMPO SCT010 BKN020TCU
  • 070230Z AUTO 26008KT 6000 FEW024/// OVC034/// ///TCU 04/04 Q1020 TEMPO 3000 -SHRA BR
  • 070200Z AUTO 30006KT 4300 -RA BR FEW012/// BKN031/// OVC043/// ///TCU 04/04 Q1020 NOSIG
  • 070130Z AUTO 25004KT 7000 FEW028/// BKN042/// OVC070/// ///TCU 04/03 Q1020 TEMPO 3000 -SHRA BR

TAF TAF LFQQ
Valid from the 07 at 00:00 until the 08 at 06:00 UTC


062300Z 0700/0806 28005KT 8000 FEW025 SCT050
TEMPO 0700/0724 3000 -SHRA BR SCT010 BKN020TCU
BECMG 0801/0804 2000 BR
PROB40 0803/0806 BKN003
ATIS : +33 3 20 16 19 54



MET'MAP, your aeronautical weather chart ! - Copyright ORBIFLY December 2007 - Disclaimer

ORBIFLY MET'MAP TEAM :

Programming & Development : Alexandra Zaïnal
Original concept : Baudouin d'Aumeries
Technical & hardware support : Manuel Goepfert
Assistance : Marc-Olivier Méhu




SOURCES & CREDITS :

   NOAA